Time;durP1;ratioP1;P1;durP2;ratioP2;P2;SDS_P1;SDS_P2;PMS_P1;PMS_P2;Temp;Humidity;BMP_temperature;BMP_pressure;BME280_temperature;BME280_humidity;BME280_pressure;Samples;Min_cycle;Max_cycle;Signal;HPM_P1;HPM_P2
2023/06/05 00:02:43;;;;;;;;;;;20.00;60.00;;;;;;6317146;28;19916;-69
2023/06/05 00:05:43;;;;;;;;;;;20.00;60.00;;;;;;6318132;28;19951;-70
2023/06/05 00:08:44;;;;;;;;;;;20.00;60.00;;;;;;6315397;28;19992;-70
2023/06/05 00:11:45;;;;;;;;;;;20.00;60.00;;;;;;6321117;28;20351;-70
2023/06/05 00:14:45;;;;;;;;;;;20.00;60.00;;;;;;6323098;28;19999;-69
2023/06/05 00:17:47;;;;;;;;;;;20.00;60.00;;;;;;6321277;28;19912;-69
2023/06/05 00:20:47;;;;;;;;;;;20.00;60.00;;;;;;6321789;28;19981;-70
2023/06/05 00:23:48;;;;;;;;;;;20.00;60.00;;;;;;6321510;28;19995;-69
2023/06/05 00:26:48;;;;;;;;;;;20.00;60.00;;;;;;6321777;28;20386;-70
2023/06/05 00:29:49;;;;;;;;;;;20.00;60.00;;;;;;6321920;28;20119;-70
2023/06/05 00:32:50;;;;;;;;;;;20.00;60.00;;;;;;6321951;28;19916;-70
2023/06/05 00:35:50;;;;;;;;;;;20.00;60.10;;;;;;6322188;28;20220;-70
2023/06/05 00:38:51;;;;;;;;;;;20.00;60.20;;;;;;6307317;28;19909;-69
2023/06/05 00:41:51;;;;;;;;;;;20.00;60.20;;;;;;6322073;28;20270;-69
2023/06/05 00:44:52;;;;;;;;;;;20.00;60.10;;;;;;6319175;28;20284;-69
2023/06/05 00:47:52;;;;;;;;;;;20.00;60.10;;;;;;6321681;28;19957;-69
2023/06/05 00:50:53;;;;;;;;;;;20.00;60.10;;;;;;6321154;28;19996;-70
2023/06/05 00:53:54;;;;;;;;;;;20.00;60.10;;;;;;6321278;28;19908;-69
2023/06/05 00:56:54;;;;;;;;;;;20.00;60.10;;;;;;6321779;28;20374;-69
2023/06/05 00:59:55;;;;;;;;;;;20.00;60.10;;;;;;6319013;28;19986;-69
2023/06/05 01:02:58;;;;;;;;;;;20.00;60.10;;;;;;6320842;28;19924;-69
2023/06/05 01:06:03;;;;;;;;;;;20.00;60.10;;;;;;6321205;28;19920;-69
2023/06/05 01:09:05;;;;;;;;;;;20.00;60.10;;;;;;6320756;28;19916;-69
2023/06/05 01:12:08;;;;;;;;;;;20.00;60.10;;;;;;6321266;28;19992;-69
2023/06/05 01:15:09;;;;;;;;;;;20.00;60.10;;;;;;6320823;28;20019;-69
2023/06/05 01:18:10;;;;;;;;;;;20.00;60.10;;;;;;6320940;28;19919;-70
2023/06/05 01:21:14;;;;;;;;;;;20.00;60.10;;;;;;6320384;28;19919;-69
2023/06/05 01:24:15;;;;;;;;;;;20.00;60.10;;;;;;6320521;28;19908;-69
2023/06/05 01:27:21;;;;;;;;;;;20.00;60.10;;;;;;6320742;28;19962;-70
2023/06/05 01:30:28;;;;;;;;;;;20.00;60.10;;;;;;6320468;28;20127;-70
2023/06/05 01:33:31;;;;;;;;;;;20.00;60.10;;;;;;6320816;28;19941;-69
2023/06/05 01:36:31;;;;;;;;;;;20.00;60.20;;;;;;6295863;28;19962;-69
2023/06/05 01:39:32;;;;;;;;;;;20.00;60.10;;;;;;6303268;28;19912;-70
2023/06/05 01:42:33;;;;;;;;;;;20.00;60.10;;;;;;6320200;28;19912;-69
2023/06/05 01:45:37;;;;;;;;;;;20.00;60.10;;;;;;6319776;28;19938;-70
2023/06/05 01:48:38;;;;;;;;;;;20.00;61.00;;;;;;6320067;28;19912;-69
2023/06/05 01:51:39;;;;;;;;;;;20.00;60.10;;;;;;6319139;28;19908;-70
2023/06/05 01:54:42;;;;;;;;;;;20.00;60.10;;;;;;6319766;28;19965;-70
2023/06/05 01:57:43;;;;;;;;;;;20.00;60.10;;;;;;6320070;28;19919;-70
2023/06/05 02:00:45;;;;;;;;;;;20.00;60.10;;;;;;6319642;28;20362;-70
2023/06/05 02:03:47;;;;;;;;;;;20.00;60.10;;;;;;6319461;28;20014;-69
2023/06/05 02:06:49;;;;;;;;;;;20.00;60.10;;;;;;6319326;28;20260;-70
2023/06/05 02:09:49;;;;;;;;;;;20.00;60.10;;;;;;6319539;28;20342;-70
2023/06/05 02:12:50;;;;;;;;;;;20.00;60.10;;;;;;6320043;28;19939;-69
2023/06/05 02:15:55;;;;;;;;;;;20.00;60.10;;;;;;6319101;28;20390;-70
2023/06/05 02:19:03;;;;;;;;;;;20.00;60.10;;;;;;6319348;28;20389;-70
2023/06/05 02:22:03;;;;;;;;;;;20.00;60.10;;;;;;6319611;28;19961;-69
2023/06/05 02:25:05;;;;;;;;;;;20.00;60.10;;;;;;6319662;28;20251;-69
2023/06/05 02:28:05;;;;;;;;;;;20.00;60.10;;;;;;6319683;28;19908;-69
2023/06/05 02:31:06;;;;;;;;;;;20.00;60.10;;;;;;6319015;28;19943;-69
2023/06/05 02:34:07;;;;;;;;;;;20.00;60.10;;;;;;6318594;28;20263;-69
2023/06/05 02:37:08;;;;;;;;;;;20.00;60.10;;;;;;6308340;28;20264;-69
2023/06/05 02:40:09;;;;;;;;;;;20.00;60.10;;;;;;6298758;28;19914;-69
2023/06/05 02:43:11;;;;;;;;;;;20.00;60.10;;;;;;6318768;28;20192;-70
2023/06/05 02:46:11;;;;;;;;;;;20.00;60.10;;;;;;6318148;28;20420;-70
2023/06/05 02:49:12;;;;;;;;;;;20.00;60.10;;;;;;6318765;28;19967;-70
2023/06/05 02:52:12;;;;;;;;;;;20.00;60.10;;;;;;6319053;28;19919;-69
2023/06/05 02:55:13;;;;;;;;;;;20.00;60.10;;;;;;6318708;28;19955;-70
2023/06/05 02:58:15;;;;;;;;;;;20.00;60.10;;;;;;6316551;28;19935;-69
2023/06/05 03:01:16;;;;;;;;;;;20.00;60.10;;;;;;6318041;28;20329;-70
2023/06/05 03:04:20;;;;;;;;;;;20.00;60.10;;;;;;6318252;28;19973;-69
2023/06/05 03:07:22;;;;;;;;;;;20.00;60.10;;;;;;6318209;28;19973;-71
2023/06/05 03:10:23;;;;;;;;;;;20.00;60.10;;;;;;6317948;28;20377;-71
2023/06/05 03:13:23;;;;;;;;;;;20.00;60.10;;;;;;6318445;28;19938;-70
2023/06/05 03:16:34;;;;;;;;;;;20.00;60.10;;;;;;6318136;28;19935;-69
2023/06/05 03:19:34;;;;;;;;;;;20.00;60.10;;;;;;6317738;28;20256;-69
2023/06/05 03:22:35;;;;;;;;;;;20.00;60.10;;;;;;6317769;28;19908;-69
2023/06/05 03:25:35;;;;;;;;;;;20.00;60.10;;;;;;6318133;28;19966;-69
2023/06/05 03:28:37;;;;;;;;;;;20.00;60.20;;;;;;6318202;28;19916;-70
2023/06/05 03:31:37;;;;;;;;;;;20.00;60.20;;;;;;6317769;28;19947;-70
2023/06/05 03:34:38;;;;;;;;;;;20.00;60.10;;;;;;6318022;28;19960;-69
2023/06/05 03:37:38;;;;;;;;;;;20.00;60.20;;;;;;6303011;28;19908;-69
2023/06/05 03:40:39;;;;;;;;;;;20.00;60.20;;;;;;6293135;28;20112;-69
2023/06/05 03:43:40;;;;;;;;;;;20.00;60.20;;;;;;6317579;28;19919;-69
2023/06/05 03:46:40;;;;;;;;;;;20.00;60.10;;;;;;6320832;28;19916;-69
2023/06/05 03:49:45;;;;;;;;;;;20.00;60.20;;;;;;6322948;28;20375;-70
2023/06/05 03:52:52;;;;;;;;;;;20.00;60.20;;;;;;6323371;28;19924;-70
2023/06/05 03:55:52;;;;;;;;;;;20.00;60.10;;;;;;6322625;28;19909;-70
2023/06/05 03:58:53;;;;;;;;;;;20.00;60.10;;;;;;6322827;28;19909;-70
2023/06/05 04:01:54;;;;;;;;;;;20.00;60.20;;;;;;6322647;28;20017;-69
2023/06/05 04:04:55;;;;;;;;;;;20.00;60.20;;;;;;6322390;28;19924;-71
2023/06/05 04:07:56;;;;;;;;;;;20.00;60.20;;;;;;6321989;28;19923;-69
2023/06/05 04:10:56;;;;;;;;;;;20.00;60.20;;;;;;6322241;28;20343;-69
2023/06/05 04:13:57;;;;;;;;;;;20.00;60.10;;;;;;6322536;28;20430;-69
2023/06/05 04:16:57;;;;;;;;;;;20.00;60.10;;;;;;6322361;28;19944;-71
2023/06/05 04:19:58;;;;;;;;;;;20.00;60.20;;;;;;6322174;28;19908;-69
2023/06/05 04:22:58;;;;;;;;;;;20.00;60.20;;;;;;6322430;28;19908;-70
2023/06/05 04:25:59;;;;;;;;;;;20.00;60.20;;;;;;6322285;28;19972;-70
2023/06/05 04:28:59;;;;;;;;;;;20.00;60.20;;;;;;6321865;28;19915;-69
2023/06/05 04:32:00;;;;;;;;;;;20.00;60.20;;;;;;6321748;28;19912;-70
2023/06/05 04:35:01;;;;;;;;;;;20.00;60.20;;;;;;6322178;28;19912;-69
2023/06/05 04:38:01;;;;;;;;;;;20.00;60.20;;;;;;6316491;28;19930;-69
2023/06/05 04:41:02;;;;;;;;;;;20.00;60.20;;;;;;6321821;28;19912;-70
2023/06/05 04:44:02;;;;;;;;;;;20.00;60.20;;;;;;6321181;28;19923;-70
2023/06/05 04:47:06;;;;;;;;;;;20.00;60.20;;;;;;6321383;28;20290;-69
2023/06/05 04:50:06;;;;;;;;;;;20.00;60.20;;;;;;6321441;28;19999;-70
2023/06/05 04:53:07;;;;;;;;;;;20.00;60.20;;;;;;6284399;28;19920;-70
2023/06/05 04:56:09;;;;;;;;;;;20.00;60.20;;;;;;6295426;28;19909;-69
2023/06/05 04:59:09;;;;;;;;;;;20.00;60.20;;;;;;6278661;28;19932;-71
2023/06/05 05:02:10;;;;;;;;;;;20.00;60.20;;;;;;6272531;28;20037;-71
2023/06/05 05:05:14;;;;;;;;;;;20.00;60.20;;;;;;6319933;28;19916;-71
2023/06/05 05:08:15;;;;;;;;;;;20.00;60.20;;;;;;6316733;28;20366;-71
2023/06/05 05:11:16;;;;;;;;;;;20.00;60.10;;;;;;6298683;28;19962;-70
2023/06/05 05:14:17;;;;;;;;;;;20.00;60.00;;;;;;6294786;28;20325;-70
2023/06/05 05:17:19;;;;;;;;;;;20.00;59.70;;;;;;6294722;28;19992;-69
2023/06/05 05:20:19;;;;;;;;;;;20.00;59.40;;;;;;6318635;28;20328;-70
2023/06/05 05:23:20;;;;;;;;;;;20.00;59.10;;;;;;6310071;28;19920;-69
2023/06/05 05:26:21;;;;;;;;;;;20.00;58.70;;;;;;6295027;28;19917;-70
2023/06/05 05:29:22;;;;;;;;;;;20.00;58.60;;;;;;6294340;28;19912;-70
2023/06/05 05:32:22;;;;;;;;;;;20.00;58.60;;;;;;6295572;28;20073;-69
2023/06/05 05:35:23;;;;;;;;;;;20.00;58.30;;;;;;6311041;28;20713;-69
2023/06/05 05:38:24;;;;;;;;;;;20.00;58.20;;;;;;6280086;28;19920;-69
2023/06/05 05:41:26;;;;;;;;;;;20.10;59.20;;;;;;6298595;28;19916;-69
2023/06/05 05:44:26;;;;;;;;;;;20.10;59.20;;;;;;6295391;28;19908;-69
2023/06/05 05:47:27;;;;;;;;;;;20.30;59.70;;;;;;6279475;28;19928;-69
2023/06/05 05:50:28;;;;;;;;;;;20.30;59.40;;;;;;6314011;28;19931;-69
2023/06/05 05:53:28;;;;;;;;;;;20.30;59.30;;;;;;6314801;28;19912;-69
2023/06/05 05:56:29;;;;;;;;;;;20.30;59.20;;;;;;6295428;28;19909;-69
2023/06/05 05:59:29;;;;;;;;;;;20.40;59.30;;;;;;6292293;28;19935;-70
2023/06/05 06:02:30;;;;;;;;;;;20.40;59.30;;;;;;6298128;28;19939;-70
2023/06/05 06:05:31;;;;;;;;;;;20.40;59.30;;;;;;6296013;28;20378;-71
2023/06/05 06:08:33;;;;;;;;;;;20.40;59.30;;;;;;6302259;28;19998;-70
2023/06/05 06:11:36;;;;;;;;;;;20.30;59.30;;;;;;6322538;28;19916;-70
2023/06/05 06:14:37;;;;;;;;;;;20.30;59.40;;;;;;6296921;28;20420;-70
2023/06/05 06:17:37;;;;;;;;;;;20.30;59.40;;;;;;6291444;28;19909;-70
2023/06/05 06:20:38;;;;;;;;;;;20.30;59.40;;;;;;6297287;28;19927;-72
2023/06/05 06:23:38;;;;;;;;;;;20.30;59.50;;;;;;6297417;28;19908;-72
2023/06/05 06:26:39;;;;;;;;;;;20.30;59.40;;;;;;6297566;28;20370;-73
2023/06/05 06:29:46;;;;;;;;;;;20.30;59.40;;;;;;6297464;28;19912;-70
2023/06/05 06:32:47;;;;;;;;;;;20.30;59.50;;;;;;6297833;28;20287;-70
2023/06/05 06:35:48;;;;;;;;;;;20.30;59.40;;;;;;6297504;28;19915;-70
2023/06/05 06:38:48;;;;;;;;;;;20.30;59.50;;;;;;6297748;28;19916;-70
2023/06/05 06:41:49;;;;;;;;;;;20.30;59.50;;;;;;6297362;28;19991;-70
2023/06/05 06:44:55;;;;;;;;;;;20.30;59.50;;;;;;6297372;28;19999;-70
2023/06/05 06:47:56;;;;;;;;;;;20.30;59.50;;;;;;6297048;28;20355;-70
2023/06/05 06:50:56;;;;;;;;;;;20.30;59.50;;;;;;6297032;28;19915;-70
2023/06/05 06:53:57;;;;;;;;;;;20.40;59.50;;;;;;6297124;28;19916;-70
2023/06/05 06:56:57;;;;;;;;;;;20.30;59.50;;;;;;6297170;28;19908;-70
2023/06/05 06:59:58;;;;;;;;;;;20.30;59.50;;;;;;6297122;28;19943;-70
2023/06/05 07:02:58;;;;;;;;;;;20.40;59.50;;;;;;6296580;28;19921;-70
2023/06/05 07:05:59;;;;;;;;;;;20.30;59.50;;;;;;6296686;28;20371;-70
2023/06/05 07:09:00;;;;;;;;;;;20.40;59.50;;;;;;6296856;28;20426;-70
2023/06/05 07:12:04;;;;;;;;;;;20.30;59.50;;;;;;6296808;28;19909;-70
2023/06/05 07:15:05;;;;;;;;;;;20.30;59.50;;;;;;6296895;28;19912;-70
2023/06/05 07:18:06;;;;;;;;;;;20.40;59.60;;;;;;6296981;28;19995;-70
2023/06/05 07:21:06;;;;;;;;;;;20.40;59.90;;;;;;6295655;28;19909;-70
2023/06/05 07:24:07;;;;;;;;;;;20.30;59.60;;;;;;6296440;28;19916;-69
2023/06/05 07:27:08;;;;;;;;;;;20.30;59.60;;;;;;6296184;28;19917;-70
2023/06/05 07:30:09;;;;;;;;;;;20.30;59.60;;;;;;6296152;28;19920;-70
2023/06/05 07:33:09;;;;;;;;;;;20.30;59.70;;;;;;6295696;28;19915;-70
2023/06/05 07:36:10;;;;;;;;;;;20.30;59.80;;;;;;6295823;28;19909;-70
2023/06/05 07:39:11;;;;;;;;;;;20.30;59.80;;;;;;6296101;28;19916;-70
2023/06/05 07:42:12;;;;;;;;;;;20.30;59.90;;;;;;6295886;28;19914;-70
2023/06/05 07:45:12;;;;;;;;;;;20.30;59.90;;;;;;6295446;28;19912;-70
2023/06/05 07:48:13;;;;;;;;;;;20.30;59.90;;;;;;6295259;28;20040;-71
2023/06/05 07:51:13;;;;;;;;;;;20.30;60.00;;;;;;6296046;28;20003;-70
2023/06/05 07:54:18;;;;;;;;;;;20.30;60.00;;;;;;6296210;28;19912;-70
2023/06/05 07:57:19;;;;;;;;;;;20.30;60.00;;;;;;6296067;28;19931;-70
2023/06/05 08:00:19;;;;;;;;;;;20.30;60.00;;;;;;6296354;28;19908;-70
2023/06/05 08:03:20;;;;;;;;;;;20.20;59.90;;;;;;6296138;28;19920;-70
2023/06/05 08:06:21;;;;;;;;;;;20.20;59.90;;;;;;6296074;28;19958;-70
2023/06/05 08:09:21;;;;;;;;;;;20.30;60.00;;;;;;6295732;28;19912;-70
2023/06/05 08:12:22;;;;;;;;;;;20.20;59.90;;;;;;6296022;28;19952;-70
2023/06/05 08:15:22;;;;;;;;;;;20.20;59.90;;;;;;6295940;28;19920;-70
2023/06/05 08:18:23;;;;;;;;;;;20.30;60.00;;;;;;6294113;28;19909;-70
2023/06/05 08:21:23;;;;;;;;;;;20.20;59.90;;;;;;6295473;28;19909;-70
2023/06/05 08:24:24;;;;;;;;;;;20.20;60.00;;;;;;6295766;28;20382;-70
2023/06/05 08:27:25;;;;;;;;;;;20.20;60.00;;;;;;6295628;28;19916;-70
2023/06/05 08:30:26;;;;;;;;;;;20.20;60.00;;;;;;6295822;28;19958;-70
2023/06/05 08:33:26;;;;;;;;;;;20.20;60.00;;;;;;6300179;28;19916;-69
2023/06/05 08:36:27;;;;;;;;;;;20.20;60.00;;;;;;6300453;28;19977;-70
2023/06/05 08:39:31;;;;;;;;;;;20.20;60.00;;;;;;6300285;28;19908;-70
2023/06/05 08:42:32;;;;;;;;;;;20.20;60.00;;;;;;6300238;28;19965;-70
2023/06/05 08:45:33;;;;;;;;;;;20.20;60.00;;;;;;6300167;28;20278;-70
2023/06/05 08:48:37;;;;;;;;;;;20.20;60.00;;;;;;6289695;28;19995;-70
2023/06/05 08:51:39;;;;;;;;;;;20.20;60.10;;;;;;6292523;28;20386;-70
2023/06/05 08:54:41;;;;;;;;;;;20.20;60.10;;;;;;6298497;28;19909;-70
2023/06/05 08:57:42;;;;;;;;;;;20.20;60.00;;;;;;6299003;28;19914;-70
2023/06/05 09:00:42;;;;;;;;;;;20.20;60.00;;;;;;6298839;28;19908;-70
2023/06/05 09:03:44;;;;;;;;;;;20.20;60.10;;;;;;6280285;28;19935;-69
2023/06/05 09:06:45;;;;;;;;;;;20.20;60.10;;;;;;6298561;28;19919;-70
2023/06/05 09:09:45;;;;;;;;;;;20.20;60.10;;;;;;6298519;28;19944;-70
2023/06/05 09:12:53;;;;;;;;;;;20.20;60.20;;;;;;6284421;28;19913;-70
2023/06/05 09:15:54;;;;;;;;;;;20.20;60.10;;;;;;6309714;28;19973;-70
2023/06/05 09:18:56;;;;;;;;;;;20.20;60.10;;;;;;6299843;28;20363;-70
2023/06/05 09:21:56;;;;;;;;;;;20.20;60.20;;;;;;6293731;28;20342;-71
2023/06/05 09:24:57;;;;;;;;;;;20.20;60.10;;;;;;6306077;28;19908;-70
2023/06/05 09:28:07;;;;;;;;;;;20.20;60.20;;;;;;6306609;28;20558;-70
2023/06/05 09:31:07;;;;;;;;;;;20.20;60.20;;;;;;6313921;28;19908;-70
2023/06/05 09:34:08;;;;;;;;;;;20.10;60.10;;;;;;6299919;28;20384;-69
2023/06/05 09:37:10;;;;;;;;;;;20.20;60.10;;;;;;6296126;28;19975;-70
2023/06/05 09:40:14;;;;;;;;;;;20.20;60.40;;;;;;6292915;28;19909;-70
2023/06/05 09:43:20;;;;;;;;;;;20.20;60.10;;;;;;6294170;28;19960;-70
2023/06/05 09:46:21;;;;;;;;;;;20.20;60.10;;;;;;6309416;28;19934;-70
2023/06/05 09:49:24;;;;;;;;;;;20.20;60.00;;;;;;6300282;28;19916;-70
2023/06/05 09:52:25;;;;;;;;;;;20.20;59.90;;;;;;6298072;28;19915;-70
2023/06/05 09:55:25;;;;;;;;;;;20.10;59.90;;;;;;6300961;28;19912;-70
2023/06/05 09:58:26;;;;;;;;;;;20.20;60.00;;;;;;6280621;28;19908;-70
2023/06/05 10:01:28;;;;;;;;;;;20.20;60.00;;;;;;6297676;28;20002;-70
2023/06/05 10:04:29;;;;;;;;;;;20.10;60.00;;;;;;6296970;28;20420;-70
2023/06/05 10:07:31;;;;;;;;;;;20.20;60.00;;;;;;6315356;28;19912;-70
2023/06/05 10:10:32;;;;;;;;;;;20.20;60.10;;;;;;6297227;28;20293;-70
2023/06/05 10:13:32;;;;;;;;;;;20.10;60.10;;;;;;6284913;28;19984;-70
2023/06/05 10:16:33;;;;;;;;;;;20.10;60.20;;;;;;6298653;28;19916;-69
2023/06/05 10:19:34;;;;;;;;;;;20.10;60.10;;;;;;6302016;28;19953;-70
2023/06/05 10:22:36;;;;;;;;;;;20.10;60.10;;;;;;6293907;28;19909;-70
2023/06/05 10:25:37;;;;;;;;;;;20.10;60.10;;;;;;6277738;28;20358;-70
2023/06/05 10:28:56;;;;;;;;;;;20.10;60.10;;;;;;6310607;28;19918;-70
2023/06/05 10:32:02;;;;;;;;;;;20.10;60.10;;;;;;6296727;28;20281;-70
2023/06/05 10:35:14;;;;;;;;;;;20.10;60.10;;;;;;6274979;28;20558;-70
2023/06/05 10:38:17;;;;;;;;;;;20.10;60.20;;;;;;6300559;28;20007;-70
2023/06/05 10:41:18;;;;;;;;;;;20.10;60.20;;;;;;6313170;28;19908;-70
2023/06/05 10:44:18;;;;;;;;;;;20.10;60.20;;;;;;6300231;28;19991;-71
2023/06/05 10:47:48;;;;;;;;;;;20.10;60.20;;;;;;6290023;28;20370;-70
2023/06/05 10:50:49;;;;;;;;;;;20.10;60.20;;;;;;6273016;28;19919;-69
2023/06/05 10:53:49;;;;;;;;;;;20.10;60.20;;;;;;6286025;28;20367;-70
2023/06/05 10:57:02;;;;;;;;;;;20.10;60.20;;;;;;6291693;28;19908;-70
2023/06/05 11:00:06;;;;;;;;;;;20.10;60.20;;;;;;6301065;28;20011;-70
2023/06/05 11:03:07;;;;;;;;;;;20.10;60.10;;;;;;6294045;28;19955;-70
2023/06/05 11:06:12;;;;;;;;;;;20.10;60.20;;;;;;6273694;28;20330;-70
2023/06/05 11:09:13;;;;;;;;;;;20.10;60.20;;;;;;6285624;28;19915;-70
2023/06/05 11:12:14;;;;;;;;;;;20.10;60.20;;;;;;6282372;28;20329;-70
2023/06/05 11:15:16;;;;;;;;;;;20.10;60.10;;;;;;6276686;28;19984;-70
2023/06/05 11:18:26;;;;;;;;;;;20.10;60.10;;;;;;6289319;28;19909;-69
2023/06/05 11:21:47;;;;;;;;;;;20.10;60.10;;;;;;6277279;28;19908;-70
2023/06/05 11:25:07;;;;;;;;;;;20.10;60.20;;;;;;6307698;28;19909;-70
2023/06/05 11:28:09;;;;;;;;;;;20.10;60.10;;;;;;6295713;28;19920;-70
2023/06/05 11:31:09;;;;;;;;;;;20.10;60.10;;;;;;6271862;28;20043;-70
2023/06/05 11:34:14;;;;;;;;;;;20.10;60.20;;;;;;6306284;28;19908;-70
2023/06/05 11:37:15;;;;;;;;;;;20.10;60.10;;;;;;6295418;28;20329;-70
2023/06/05 11:40:23;;;;;;;;;;;20.10;60.10;;;;;;6294865;28;20330;-69
2023/06/05 11:43:24;;;;;;;;;;;20.10;60.10;;;;;;6299969;28;19912;-69
2023/06/05 11:46:45;;;;;;;;;;;20.10;60.20;;;;;;6293931;28;20012;-70
2023/06/05 11:49:45;;;;;;;;;;;20.10;60.20;;;;;;6309899;28;19920;-70
2023/06/05 11:52:46;;;;;;;;;;;20.10;60.10;;;;;;6294331;28;20271;-71
2023/06/05 11:58:50;;;;;;;;;;;20.10;60.10;;;;;;6300855;28;19985;-70
2023/06/05 12:01:54;;;;;;;;;;;20.10;60.10;;;;;;6295388;28;19909;-70
2023/06/05 12:04:54;;;;;;;;;;;20.10;60.20;;;;;;6285842;28;20686;-70
2023/06/05 12:07:56;;;;;;;;;;;20.10;60.20;;;;;;6280244;28;19985;-70
2023/06/05 12:10:56;;;;;;;;;;;20.10;60.10;;;;;;6284325;28;19912;-70
2023/06/05 12:13:57;;;;;;;;;;;20.10;60.10;;;;;;6289091;28;20354;-70
2023/06/05 12:16:58;;;;;;;;;;;20.10;60.10;;;;;;6300202;28;19962;-70
2023/06/05 12:19:59;;;;;;;;;;;20.10;60.20;;;;;;6313983;28;20425;-70
2023/06/05 12:22:59;;;;;;;;;;;20.10;60.10;;;;;;6297609;28;19916;-70
2023/06/05 12:26:04;;;;;;;;;;;20.10;60.20;;;;;;6284373;28;19912;-70
2023/06/05 12:29:05;;;;;;;;;;;20.00;60.10;;;;;;6274982;28;20010;-70
2023/06/05 12:32:25;;;;;;;;;;;20.10;60.20;;;;;;6299261;28;19970;-69
2023/06/05 12:35:27;;;;;;;;;;;20.10;60.20;;;;;;6314579;28;19909;-70
2023/06/05 12:38:27;;;;;;;;;;;20.10;60.20;;;;;;6282678;28;19908;-70
2023/06/05 12:41:28;;;;;;;;;;;20.10;60.20;;;;;;6287279;28;20274;-70
2023/06/05 12:44:28;;;;;;;;;;;20.10;60.20;;;;;;6292300;28;19916;-70
2023/06/05 12:47:29;;;;;;;;;;;20.10;60.20;;;;;;6281716;28;19912;-70
2023/06/05 12:50:29;;;;;;;;;;;20.10;60.20;;;;;;6291808;28;20027;-69
2023/06/05 12:53:30;;;;;;;;;;;20.10;60.20;;;;;;6293233;28;19915;-70
2023/06/05 12:56:34;;;;;;;;;;;20.10;60.20;;;;;;6308787;28;20325;-70
2023/06/05 12:59:35;;;;;;;;;;;20.10;60.20;;;;;;6287543;28;19913;-70
2023/06/05 13:02:36;;;;;;;;;;;20.10;60.20;;;;;;6297572;28;19925;-70
2023/06/05 13:05:36;;;;;;;;;;;20.00;60.10;;;;;;6313602;28;19952;-70
2023/06/05 13:08:37;;;;;;;;;;;20.00;60.10;;;;;;6297813;28;19917;-70
2023/06/05 13:11:37;;;;;;;;;;;20.10;60.20;;;;;;6284521;28;20390;-70
2023/06/05 13:14:38;;;;;;;;;;;20.00;60.10;;;;;;6292479;28;19948;-70
2023/06/05 13:17:38;;;;;;;;;;;20.10;60.10;;;;;;6274503;28;19970;-70
2023/06/05 13:20:39;;;;;;;;;;;20.00;60.00;;;;;;6289080;28;19931;-70
2023/06/05 13:23:39;;;;;;;;;;;20.10;60.10;;;;;;6295752;28;20316;-70
2023/06/05 13:26:41;;;;;;;;;;;20.10;60.10;;;;;;6295182;28;19912;-70
2023/06/05 13:29:42;;;;;;;;;;;20.10;60.00;;;;;;6305446;28;20001;-70
2023/06/05 13:32:44;;;;;;;;;;;20.10;60.10;;;;;;6303279;28;19916;-70
2023/06/05 13:35:45;;;;;;;;;;;20.10;60.00;;;;;;6294255;28;20573;-70
2023/06/05 13:38:47;;;;;;;;;;;20.10;59.90;;;;;;6296558;28;19912;-70
2023/06/05 13:41:47;;;;;;;;;;;20.10;59.90;;;;;;6310083;28;19919;-70
2023/06/05 13:44:48;;;;;;;;;;;20.10;59.90;;;;;;6296465;28;19916;-70
2023/06/05 13:47:48;;;;;;;;;;;20.10;59.80;;;;;;6297083;28;19920;-70
2023/06/05 13:50:49;;;;;;;;;;;20.10;59.80;;;;;;6301881;28;19960;-70
2023/06/05 13:53:49;;;;;;;;;;;20.10;59.70;;;;;;6285004;28;19946;-70
2023/06/05 13:56:51;;;;;;;;;;;20.10;59.70;;;;;;6287391;28;19912;-70
2023/06/05 13:59:52;;;;;;;;;;;20.10;59.70;;;;;;6282388;28;20402;-70
2023/06/05 14:02:52;;;;;;;;;;;20.10;59.70;;;;;;6305073;28;19921;-70
2023/06/05 14:05:53;;;;;;;;;;;20.10;59.70;;;;;;6296419;28;19927;-70
2023/06/05 14:08:53;;;;;;;;;;;20.10;59.70;;;;;;6280197;28;19919;-70
2023/06/05 14:11:54;;;;;;;;;;;20.10;59.70;;;;;;6308062;28;19943;-70
2023/06/05 14:14:55;;;;;;;;;;;20.10;59.70;;;;;;6296697;28;20368;-70
2023/06/05 14:17:55;;;;;;;;;;;20.10;59.70;;;;;;6280154;28;19917;-70
2023/06/05 14:20:56;;;;;;;;;;;20.10;59.70;;;;;;6294550;28;19969;-70
2023/06/05 14:23:57;;;;;;;;;;;20.10;59.70;;;;;;6297762;28;19916;-70
2023/06/05 14:26:57;;;;;;;;;;;20.10;59.70;;;;;;6307756;28;20287;-70
2023/06/05 14:29:58;;;;;;;;;;;20.10;59.70;;;;;;6295193;28;20003;-70
2023/06/05 14:32:58;;;;;;;;;;;20.10;59.70;;;;;;6284276;28;19952;-70
2023/06/05 14:36:00;;;;;;;;;;;20.10;59.70;;;;;;6302940;28;20362;-70
2023/06/05 14:39:00;;;;;;;;;;;20.10;59.70;;;;;;6295800;28;19915;-69
2023/06/05 14:42:01;;;;;;;;;;;20.10;59.70;;;;;;6310177;28;19909;-70
2023/06/05 14:45:02;;;;;;;;;;;20.10;59.70;;;;;;6272430;28;20004;-70
2023/06/05 14:48:03;;;;;;;;;;;20.10;59.70;;;;;;6281893;28;19921;-70
2023/06/05 14:51:04;;;;;;;;;;;20.10;59.70;;;;;;6284050;28;20370;-70
2023/06/05 14:54:04;;;;;;;;;;;20.10;59.70;;;;;;6300211;28;20359;-70
2023/06/05 14:57:05;;;;;;;;;;;20.10;59.70;;;;;;6290993;28;19931;-69
2023/06/05 15:00:07;;;;;;;;;;;20.10;59.70;;;;;;6288351;28;19909;-70
2023/06/05 15:03:08;;;;;;;;;;;20.10;59.80;;;;;;6283507;28;20015;-70
2023/06/05 15:06:14;;;;;;;;;;;20.10;59.70;;;;;;6280671;28;19923;-70
2023/06/05 15:09:17;;;;;;;;;;;20.10;59.80;;;;;;6299115;28;20196;-70
2023/06/05 15:12:17;;;;;;;;;;;20.10;59.80;;;;;;6292194;28;20460;-70
2023/06/05 15:15:18;;;;;;;;;;;20.10;60.60;;;;;;6270613;28;19916;-70
2023/06/05 15:18:18;;;;;;;;;;;20.10;59.80;;;;;;6303132;28;20063;-70
2023/06/05 15:21:19;;;;;;;;;;;20.10;59.80;;;;;;6294697;28;20436;-70
2023/06/05 15:24:19;;;;;;;;;;;20.10;59.70;;;;;;6277377;28;20391;-70
2023/06/05 15:27:20;;;;;;;;;;;20.10;59.70;;;;;;6292449;28;19916;-69
2023/06/05 15:30:20;;;;;;;;;;;20.10;59.70;;;;;;6295653;28;20386;-70
2023/06/05 15:33:21;;;;;;;;;;;20.10;59.70;;;;;;6286656;28;19909;-70
2023/06/05 15:36:21;;;;;;;;;;;20.10;59.70;;;;;;6278301;28;20003;-70
2023/06/05 15:39:22;;;;;;;;;;;20.10;59.70;;;;;;6303596;28;20317;-70
2023/06/05 15:42:31;;;;;;;;;;;20.10;59.70;;;;;;6291990;28;19909;-70
2023/06/05 15:45:32;;;;;;;;;;;20.10;59.80;;;;;;6270491;28;20377;-70
2023/06/05 15:48:33;;;;;;;;;;;20.10;59.70;;;;;;6290166;28;19919;-70
2023/06/05 15:51:33;;;;;;;;;;;20.10;59.80;;;;;;6294068;28;19912;-70
2023/06/05 15:54:34;;;;;;;;;;;20.10;59.80;;;;;;6277705;28;20000;-70
2023/06/05 15:57:34;;;;;;;;;;;20.10;59.80;;;;;;6291151;28;19913;-70
2023/06/05 16:00:35;;;;;;;;;;;20.10;59.80;;;;;;6269555;28;19908;-70
2023/06/05 16:03:36;;;;;;;;;;;20.10;59.80;;;;;;6279939;28;19956;-71
2023/06/05 16:06:37;;;;;;;;;;;20.10;59.80;;;;;;6271690;28;20337;-70
2023/06/05 16:09:37;;;;;;;;;;;20.10;59.80;;;;;;6303554;28;19912;-70
2023/06/05 16:12:38;;;;;;;;;;;20.10;59.80;;;;;;6292854;28;19913;-70
2023/06/05 16:15:41;;;;;;;;;;;20.10;59.80;;;;;;6291352;28;19953;-70
2023/06/05 16:18:41;;;;;;;;;;;20.10;59.80;;;;;;6303105;28;20120;-70
2023/06/05 16:21:42;;;;;;;;;;;20.10;60.60;;;;;;6290603;28;19919;-70
2023/06/05 16:24:42;;;;;;;;;;;20.10;59.80;;;;;;6278716;28;19913;-70
2023/06/05 16:27:43;;;;;;;;;;;20.10;59.90;;;;;;6280044;28;19928;-70
2023/06/05 16:30:43;;;;;;;;;;;20.10;59.80;;;;;;6295466;28;20434;-70
2023/06/05 16:33:44;;;;;;;;;;;20.10;59.80;;;;;;6287244;28;19923;-70
2023/06/05 16:36:44;;;;;;;;;;;20.10;59.80;;;;;;6273487;28;19912;-70
2023/06/05 16:39:45;;;;;;;;;;;20.10;59.80;;;;;;6302564;28;19909;-70
2023/06/05 16:42:45;;;;;;;;;;;20.10;59.90;;;;;;6285332;28;19913;-70
2023/06/05 16:45:46;;;;;;;;;;;20.10;59.80;;;;;;6284858;28;19917;-70
2023/06/05 16:48:46;;;;;;;;;;;20.10;59.90;;;;;;6282717;28;20135;-69
2023/06/05 16:51:47;;;;;;;;;;;20.10;59.90;;;;;;6289985;28;20398;-69
2023/06/05 16:54:47;;;;;;;;;;;20.10;59.90;;;;;;6292735;28;19916;-70
2023/06/05 16:57:48;;;;;;;;;;;20.10;59.90;;;;;;6293347;28;19908;-70
2023/06/05 17:00:49;;;;;;;;;;;20.10;59.90;;;;;;6287060;28;20019;-70
2023/06/05 17:03:53;;;;;;;;;;;20.10;59.90;;;;;;6295781;28;19920;-70
2023/06/05 17:06:53;;;;;;;;;;;20.10;59.90;;;;;;6289612;28;19975;-70
2023/06/05 17:09:54;;;;;;;;;;;20.10;59.90;;;;;;6295914;28;19908;-69
2023/06/05 17:12:55;;;;;;;;;;;20.10;59.90;;;;;;6293748;28;19912;-70
2023/06/05 17:15:55;;;;;;;;;;;20.10;59.90;;;;;;6286598;28;19919;-70
2023/06/05 17:18:56;;;;;;;;;;;20.10;59.90;;;;;;6293567;28;19909;-70
2023/06/05 17:21:56;;;;;;;;;;;20.10;59.90;;;;;;6273467;28;19954;-70
2023/06/05 17:24:57;;;;;;;;;;;20.10;59.90;;;;;;6311881;28;19908;-70
2023/06/05 17:27:57;;;;;;;;;;;20.10;59.90;;;;;;6293780;28;19916;-70
2023/06/05 17:30:58;;;;;;;;;;;20.10;59.90;;;;;;6292907;28;19908;-69
2023/06/05 17:33:58;;;;;;;;;;;20.10;59.90;;;;;;6297591;28;19912;-70
2023/06/05 17:36:59;;;;;;;;;;;20.10;59.90;;;;;;6296772;28;20236;-70
2023/06/05 17:40:01;;;;;;;;;;;20.00;59.80;;;;;;6288526;28;19959;-70